Time;durP1;ratioP1;P1;durP2;ratioP2;P2;SDS_P1;SDS_P2;PMS_P1;PMS_P2;Temp;Humidity;BMP_temperature;BMP_pressure;BME280_temperature;BME280_humidity;BME280_pressure;Samples;Min_cycle;Max_cycle;Signal;HPM_P1;HPM_P2
2022/05/19 00:01:58;;;;;;;0.00;0.00;;;17.40;99.90;;;;;;4906110;29;20115;-62
2022/05/19 00:04:24;;;;;;;0.00;0.00;;;17.40;99.90;;;;;;4905794;29;20514;-62
2022/05/19 00:06:50;;;;;;;0.00;0.00;;;17.40;99.90;;;;;;4906240;29;20044;-63
2022/05/19 00:09:16;;;;;;;0.00;0.00;;;17.40;99.90;;;;;;4906411;29;20096;-63
2022/05/19 00:11:43;;;;;;;0.00;0.00;;;17.40;99.90;;;;;;4889378;29;20554;-62
2022/05/19 00:14:09;;;;;;;0.00;0.00;;;17.40;99.90;;;;;;4904919;29;20240;-62
2022/05/19 00:16:35;;;;;;;0.00;0.00;;;17.30;99.90;;;;;;4906074;29;20079;-62
2022/05/19 00:19:01;;;;;;;0.00;0.00;;;17.30;99.90;;;;;;4906266;29;20095;-62
2022/05/19 00:21:27;;;;;;;0.00;0.00;;;17.30;99.90;;;;;;4905438;29;20076;-62
2022/05/19 00:23:53;;;;;;;0.00;0.00;;;17.20;99.90;;;;;;4906120;29;20548;-62
2022/05/19 00:26:18;;;;;;;0.08;0.08;;;17.20;99.90;;;;;;4905853;29;20048;-63
2022/05/19 00:28:44;;;;;;;0.00;0.00;;;17.40;99.90;;;;;;4905712;29;20376;-62
2022/05/19 00:31:10;;;;;;;0.00;0.00;;;17.30;99.90;;;;;;4905711;29;20488;-62
2022/05/19 00:33:36;;;;;;;0.00;0.00;;;17.20;99.90;;;;;;4905668;29;20063;-62
2022/05/19 00:36:16;;;;;;;0.00;0.00;;;17.20;99.90;;;;;;4905564;29;20057;-62
2022/05/19 00:38:43;;;;;;;0.00;0.00;;;17.20;99.90;;;;;;4906077;29;20981;-62
2022/05/19 00:41:10;;;;;;;0.00;0.00;;;17.20;99.90;;;;;;4905867;29;20044;-62
2022/05/19 00:43:41;;;;;;;0.20;0.20;;;17.20;99.90;;;;;;4905174;29;20419;-62
2022/05/19 00:46:14;;;;;;;0.00;0.00;;;17.20;99.90;;;;;;4913530;29;20055;-63
2022/05/19 00:48:49;;;;;;;0.00;0.00;;;17.20;99.90;;;;;;4889421;29;20104;-62
2022/05/19 00:51:17;;;;;;;0.00;0.00;;;17.30;99.90;;;;;;4905647;29;20048;-62
2022/05/19 00:53:50;;;;;;;0.00;0.00;;;17.30;99.90;;;;;;4905908;29;20079;-62
2022/05/19 00:56:25;;;;;;;0.00;0.00;;;17.30;99.90;;;;;;4905517;29;20045;-63
2022/05/19 00:59:24;;;;;;;0.00;0.00;;;17.30;99.90;;;;;;4904312;29;20296;-62
2022/05/19 01:01:51;;;;;;;0.00;0.00;;;17.20;99.90;;;;;;4897072;29;20059;-62
2022/05/19 01:04:24;;;;;;;0.00;0.00;;;17.30;99.90;;;;;;4904290;29;20464;-62
2022/05/19 01:09:15;;;;;;;0.00;0.00;;;17.20;99.90;;;;;;4903190;23;20748;-63
2022/05/19 01:11:43;;;;;;;0.00;0.00;;;17.10;99.90;;;;;;4886574;29;20895;-62
2022/05/19 01:14:09;;;;;;;0.00;0.00;;;17.20;99.90;;;;;;4877485;29;20052;-62
2022/05/19 01:16:37;;;;;;;0.00;0.00;;;17.10;99.90;;;;;;4905516;29;20091;-62
2022/05/19 01:19:10;;;;;;;0.00;0.00;;;17.00;99.90;;;;;;4904791;29;20087;-63
2022/05/19 01:21:37;;;;;;;0.00;0.00;;;17.00;99.90;;;;;;4905014;29;20052;-62
2022/05/19 01:24:07;;;;;;;0.00;0.00;;;17.00;99.90;;;;;;4905376;29;20127;-62
2022/05/19 01:26:51;;;;;;;0.00;0.00;;;17.00;99.90;;;;;;4904693;29;20059;-62
2022/05/19 01:29:21;;;;;;;0.00;0.00;;;16.90;99.90;;;;;;4887660;29;20059;-63
2022/05/19 01:31:47;;;;;;;0.00;0.00;;;16.90;99.90;;;;;;4904730;29;20063;-63
2022/05/19 01:34:14;;;;;;;0.00;0.00;;;16.80;99.90;;;;;;4905981;29;20135;-62
2022/05/19 01:36:39;;;;;;;0.00;0.00;;;16.80;99.90;;;;;;4905177;29;20059;-62
2022/05/19 01:39:11;;;;;;;0.00;0.00;;;16.80;99.90;;;;;;4904599;29;20060;-62
2022/05/19 01:41:58;;;;;;;0.00;0.00;;;16.60;99.90;;;;;;4888135;29;20056;-62
2022/05/19 01:44:24;;;;;;;0.00;0.00;;;16.70;99.90;;;;;;4903399;29;20052;-62
2022/05/19 01:47:02;;;;;;;0.00;0.00;;;16.70;99.90;;;;;;4896495;29;20052;-62
2022/05/19 01:49:42;;;;;;;0.00;0.00;;;16.70;99.90;;;;;;4886060;29;20068;-62
2022/05/19 01:52:44;;;;;;;0.00;0.00;;;16.80;99.90;;;;;;4869216;29;20043;-62
2022/05/19 01:55:21;;;;;;;0.00;0.00;;;16.60;99.90;;;;;;4836768;29;20083;-62
2022/05/19 01:58:04;;;;;;;0.00;0.00;;;16.50;99.90;;;;;;4885490;29;20041;-62
2022/05/19 02:00:31;;;;;;;0.00;0.00;;;16.30;99.90;;;;;;4884625;29;20147;-62
2022/05/19 02:03:15;;;;;;;0.00;0.00;;;16.30;99.90;;;;;;4886467;29;20497;-62
2022/05/19 02:05:56;;;;;;;0.00;0.00;;;16.30;99.90;;;;;;4886280;29;20131;-62
2022/05/19 02:08:29;;;;;;;0.00;0.00;;;16.30;99.90;;;;;;4885845;29;20112;-63
2022/05/19 02:10:58;;;;;;;0.00;0.00;;;16.30;99.90;;;;;;4886175;29;20055;-63
2022/05/19 02:13:25;;;;;;;0.00;0.00;;;16.30;99.90;;;;;;4884763;29;20049;-63
2022/05/19 02:15:52;;;;;;;0.00;0.00;;;16.40;99.90;;;;;;4887882;29;20055;-62
2022/05/19 02:18:21;;;;;;;0.00;0.00;;;16.40;99.90;;;;;;4889281;29;20447;-62
2022/05/19 02:20:49;;;;;;;0.00;0.00;;;16.30;99.90;;;;;;4872435;29;20049;-62
2022/05/19 02:23:15;;;;;;;0.00;0.00;;;16.20;99.90;;;;;;4889767;29;20131;-62
2022/05/19 02:25:49;;;;;;;0.10;0.10;;;16.20;99.90;;;;;;4889747;29;20176;-62
2022/05/19 02:28:33;;;;;;;0.00;0.00;;;16.30;99.90;;;;;;4888792;29;20044;-63
2022/05/19 02:31:00;;;;;;;0.00;0.00;;;16.20;99.90;;;;;;4889672;29;20119;-62
2022/05/19 02:33:26;;;;;;;0.00;0.00;;;16.20;99.90;;;;;;4888765;29;20104;-62
2022/05/19 02:35:51;;;;;;;0.00;0.00;;;16.10;99.90;;;;;;4889099;29;20489;-62
2022/05/19 02:38:19;;;;;;;0.00;0.00;;;16.00;99.90;;;;;;4889005;29;20045;-62
2022/05/19 02:40:45;;;;;;;0.00;0.00;;;16.00;99.90;;;;;;4872910;29;20049;-62
2022/05/19 02:43:12;;;;;;;0.00;0.00;;;15.90;99.90;;;;;;4888281;29;20124;-62
2022/05/19 02:45:38;;;;;;;0.00;0.00;;;15.90;99.90;;;;;;4893451;29;20625;-62
2022/05/19 02:48:06;;;;;;;0.00;0.00;;;15.90;99.90;;;;;;4894971;29;20639;-62
2022/05/19 02:50:32;;;;;;;0.00;0.00;;;15.90;99.90;;;;;;4888041;29;20076;-62
2022/05/19 02:52:58;;;;;;;0.00;0.00;;;15.90;99.90;;;;;;4888711;29;20096;-62
2022/05/19 02:55:24;;;;;;;0.00;0.00;;;16.00;99.90;;;;;;4888937;29;20123;-62
2022/05/19 02:57:50;;;;;;;0.00;0.00;;;16.00;99.90;;;;;;4871097;29;20084;-62
2022/05/19 03:00:20;;;;;;;0.00;0.00;;;16.10;99.90;;;;;;4888757;29;20049;-62
2022/05/19 03:02:46;;;;;;;0.00;0.00;;;15.90;99.90;;;;;;4889249;29;20528;-63
2022/05/19 03:05:18;;;;;;;0.00;0.00;;;15.90;99.90;;;;;;4889035;29;20115;-62
2022/05/19 03:07:44;;;;;;;0.00;0.00;;;15.90;99.90;;;;;;4888988;29;20052;-62
2022/05/19 03:10:10;;;;;;;0.00;0.00;;;16.00;99.90;;;;;;4888810;29;20063;-63
2022/05/19 03:12:36;;;;;;;0.00;0.00;;;15.90;99.90;;;;;;4887700;29;20115;-62
2022/05/19 03:15:02;;;;;;;0.10;0.10;;;15.80;99.90;;;;;;4887854;29;20049;-62
2022/05/19 03:17:28;;;;;;;0.00;0.00;;;15.80;99.90;;;;;;4888480;29;20492;-62
2022/05/19 03:19:55;;;;;;;0.00;0.00;;;15.80;99.90;;;;;;4888632;29;20092;-62
2022/05/19 03:22:22;;;;;;;0.00;0.00;;;15.70;99.90;;;;;;4887665;29;20045;-62
2022/05/19 03:24:48;;;;;;;0.00;0.00;;;15.70;99.90;;;;;;4888419;29;20731;-63
2022/05/19 03:27:14;;;;;;;0.00;0.00;;;15.70;99.90;;;;;;4886975;29;20484;-62
2022/05/19 03:29:40;;;;;;;0.00;0.00;;;15.70;99.90;;;;;;4888034;29;20048;-62
2022/05/19 03:32:06;;;;;;;0.00;0.00;;;15.80;99.90;;;;;;4887860;29;20058;-62
2022/05/19 03:34:32;;;;;;;0.00;0.00;;;15.70;99.90;;;;;;4855760;29;20080;-64
2022/05/19 03:37:02;;;;;;;0.00;0.00;;;15.70;99.90;;;;;;4887912;29;20076;-62
2022/05/19 03:39:28;;;;;;;0.00;0.00;;;15.70;99.90;;;;;;4887297;29;20068;-62
2022/05/19 03:41:54;;;;;;;0.00;0.00;;;15.70;99.90;;;;;;4887131;29;20052;-62
2022/05/19 03:44:20;;;;;;;0.00;0.00;;;15.80;99.90;;;;;;4887831;29;20489;-62
2022/05/19 03:46:45;;;;;;;0.00;0.00;;;15.80;99.90;;;;;;4896107;29;20056;-62
2022/05/19 03:49:13;;;;;;;0.00;0.00;;;15.90;99.90;;;;;;4906853;29;20044;-62
2022/05/19 03:51:40;;;;;;;0.00;0.00;;;15.90;99.90;;;;;;4889736;29;20051;-62
2022/05/19 03:54:06;;;;;;;0.00;0.00;;;16.00;99.90;;;;;;4906410;29;20052;-62
2022/05/19 03:56:32;;;;;;;0.00;0.00;;;16.00;99.90;;;;;;4888808;29;20055;-62
2022/05/19 03:58:58;;;;;;;0.00;0.00;;;16.00;99.90;;;;;;4906243;29;20488;-62
2022/05/19 04:01:24;;;;;;;0.00;0.00;;;16.00;99.90;;;;;;4906650;29;20487;-62
2022/05/19 04:03:49;;;;;;;0.00;0.00;;;16.00;99.90;;;;;;4906332;29;20036;-62
2022/05/19 04:06:16;;;;;;;0.00;0.00;;;16.10;99.90;;;;;;4906512;29;20576;-62
2022/05/19 04:08:42;;;;;;;0.00;0.00;;;16.10;99.90;;;;;;4906221;29;20119;-62
2022/05/19 04:11:07;;;;;;;0.00;0.00;;;16.30;99.90;;;;;;4906571;29;20484;-62
2022/05/19 04:13:33;;;;;;;0.00;0.00;;;16.00;99.90;;;;;;4904691;29;20476;-62
2022/05/19 04:15:58;;;;;;;0.00;0.00;;;16.20;99.90;;;;;;4906499;29;20116;-62
2022/05/19 04:18:24;;;;;;;0.00;0.00;;;16.10;99.90;;;;;;4905954;29;20048;-62
2022/05/19 04:20:50;;;;;;;0.00;0.00;;;16.10;99.90;;;;;;4906243;29;20044;-62
2022/05/19 04:23:16;;;;;;;0.00;0.00;;;16.10;99.90;;;;;;4905785;29;20048;-63
2022/05/19 04:25:42;;;;;;;0.00;0.00;;;16.20;99.90;;;;;;4906855;29;20051;-62
2022/05/19 04:28:09;;;;;;;0.00;0.00;;;16.10;99.90;;;;;;4905574;29;20048;-62
2022/05/19 04:30:35;;;;;;;0.00;0.00;;;16.20;99.90;;;;;;4905209;29;20044;-62
2022/05/19 04:33:02;;;;;;;0.00;0.00;;;16.20;99.90;;;;;;4888909;29;20059;-62
2022/05/19 04:35:28;;;;;;;0.00;0.00;;;16.50;99.90;;;;;;4905652;29;20044;-62
2022/05/19 04:37:57;;;;;;;0.00;0.00;;;16.30;99.90;;;;;;4905494;29;20051;-62
2022/05/19 04:40:23;;;;;;;0.00;0.00;;;16.30;99.90;;;;;;4905965;29;20076;-62
2022/05/19 04:42:49;;;;;;;0.00;0.00;;;16.30;99.90;;;;;;4905466;29;20357;-62
2022/05/19 04:45:16;;;;;;;0.00;0.00;;;16.20;99.90;;;;;;4900976;29;20036;-62
2022/05/19 04:47:42;;;;;;;0.00;0.00;;;16.30;99.90;;;;;;4894821;29;20056;-62
2022/05/19 04:50:09;;;;;;;0.00;0.00;;;16.50;99.90;;;;;;4886804;29;20459;-62
2022/05/19 04:52:35;;;;;;;0.00;0.00;;;16.60;99.90;;;;;;4886424;29;20048;-62
2022/05/19 04:55:02;;;;;;;0.00;0.00;;;16.70;99.90;;;;;;4885014;29;20059;-62
2022/05/19 04:57:27;;;;;;;0.00;0.00;;;16.90;99.90;;;;;;4885984;29;20051;-62
2022/05/19 04:59:53;;;;;;;0.00;0.00;;;17.00;99.90;;;;;;4870085;29;20049;-63
2022/05/19 05:02:19;;;;;;;0.00;0.00;;;17.10;99.90;;;;;;4886493;29;20040;-63
2022/05/19 05:04:44;;;;;;;0.00;0.00;;;17.20;99.90;;;;;;4869276;29;20092;-62
2022/05/19 05:07:10;;;;;;;0.00;0.00;;;17.20;99.90;;;;;;4886635;29;20435;-62
2022/05/19 05:09:36;;;;;;;0.10;0.10;;;17.30;99.90;;;;;;4886672;29;20136;-62
2022/05/19 05:12:02;;;;;;;0.22;0.10;;;17.60;99.90;;;;;;4885149;29;20044;-63
2022/05/19 05:14:28;;;;;;;0.00;0.00;;;17.90;99.90;;;;;;4886104;29;20108;-62
2022/05/19 05:16:54;;;;;;;0.00;0.00;;;18.10;99.90;;;;;;4886609;29;20044;-63
2022/05/19 05:19:22;;;;;;;0.00;0.00;;;18.10;99.90;;;;;;4886608;29;20448;-63
2022/05/19 05:21:54;;;;;;;0.00;0.00;;;17.90;99.90;;;;;;4886104;29;20132;-63
2022/05/19 05:24:20;;;;;;;0.00;0.00;;;17.80;99.90;;;;;;4886636;29;20487;-63
2022/05/19 05:26:46;;;;;;;0.00;0.00;;;17.60;99.90;;;;;;4885748;29;20080;-63
2022/05/19 05:29:12;;;;;;;0.00;0.00;;;17.60;99.90;;;;;;4869155;29;20048;-62
2022/05/19 05:31:37;;;;;;;0.00;0.00;;;17.50;99.90;;;;;;4886211;29;20048;-63
2022/05/19 05:34:03;;;;;;;0.00;0.00;;;17.40;99.90;;;;;;4886102;29;20409;-62
2022/05/19 05:36:29;;;;;;;0.00;0.00;;;17.30;99.90;;;;;;4885927;29;20754;-63
2022/05/19 05:38:54;;;;;;;1.42;0.77;;;17.50;99.90;;;;;;4886087;29;20041;-63
2022/05/19 05:41:20;;;;;;;0.35;0.35;;;17.40;99.90;;;;;;4885793;29;20096;-63
2022/05/19 05:43:46;;;;;;;0.10;0.10;;;17.50;99.90;;;;;;4869203;29;20441;-63
2022/05/19 05:46:16;;;;;;;0.15;0.15;;;17.30;99.90;;;;;;4871831;29;20146;-63
2022/05/19 05:48:44;;;;;;;1.05;0.43;;;17.40;99.90;;;;;;4887306;29;20040;-62
2022/05/19 05:51:11;;;;;;;7.05;1.95;;;17.60;99.90;;;;;;4871962;29;20045;-63
2022/05/19 05:53:38;;;;;;;0.30;0.30;;;17.60;99.90;;;;;;4872330;29;20056;-63
2022/05/19 05:56:05;;;;;;;0.43;0.30;;;17.60;99.90;;;;;;4890074;29;20182;-62
2022/05/19 05:58:31;;;;;;;0.77;0.38;;;17.70;99.90;;;;;;4889239;29;20104;-62
2022/05/19 06:00:57;;;;;;;0.32;0.30;;;17.70;99.90;;;;;;4889053;29;20060;-62
2022/05/19 06:03:24;;;;;;;0.60;0.43;;;17.70;99.90;;;;;;4889610;29;20437;-62
2022/05/19 06:05:50;;;;;;;0.03;0.03;;;17.70;99.90;;;;;;4889819;29;20108;-63
2022/05/19 06:08:16;;;;;;;0.08;0.08;;;17.80;99.90;;;;;;4889509;29;20065;-63
2022/05/19 06:10:42;;;;;;;0.10;0.10;;;18.00;99.90;;;;;;4889291;29;20132;-63
2022/05/19 06:13:08;;;;;;;0.63;0.63;;;18.30;99.90;;;;;;4888614;29;20083;-63
2022/05/19 06:15:34;;;;;;;1.17;0.38;;;18.80;99.90;;;;;;4889329;29;20132;-62
2022/05/19 06:18:00;;;;;;;0.43;0.40;;;19.20;99.90;;;;;;4889242;29;20520;-63
2022/05/19 06:20:26;;;;;;;0.73;0.63;;;19.50;99.90;;;;;;4889691;29;20139;-62
2022/05/19 06:22:52;;;;;;;0.43;0.40;;;20.00;99.90;;;;;;4889508;29;20048;-62
2022/05/19 06:25:21;;;;;;;1.25;0.90;;;20.20;99.90;;;;;;4889355;29;20051;-63
2022/05/19 06:27:50;;;;;;;0.85;0.20;;;20.30;99.90;;;;;;4887884;29;20036;-63
2022/05/19 06:30:18;;;;;;;0.00;0.00;;;20.20;99.90;;;;;;4889236;29;20051;-63
2022/05/19 06:32:45;;;;;;;0.20;0.10;;;20.20;99.90;;;;;;4889212;29;20051;-63
2022/05/19 06:35:14;;;;;;;0.30;0.28;;;20.30;99.90;;;;;;4888934;29;20080;-63
2022/05/19 06:37:39;;;;;;;0.00;0.00;;;20.50;99.90;;;;;;4872325;29;20056;-62
2022/05/19 06:40:07;;;;;;;0.35;0.30;;;20.70;99.90;;;;;;4889327;29;20278;-63
2022/05/19 06:42:35;;;;;;;0.00;0.00;;;20.70;99.90;;;;;;4887681;29;20044;-63
2022/05/19 06:45:01;;;;;;;0.13;0.13;;;20.70;99.90;;;;;;4891271;29;20044;-63
2022/05/19 06:47:26;;;;;;;0.10;0.10;;;20.70;99.90;;;;;;4879941;29;20049;-63
2022/05/19 06:49:54;;;;;;;0.63;0.20;;;20.80;99.90;;;;;;4889050;29;20112;-63
2022/05/19 06:52:26;;;;;;;0.17;0.17;;;20.80;99.90;;;;;;4888590;29;20858;-63
2022/05/19 06:54:53;;;;;;;0.15;0.08;;;21.20;99.90;;;;;;4888573;29;20799;-63
2022/05/19 06:57:20;;;;;;;0.00;0.00;;;21.40;99.90;;;;;;4887650;29;20044;-66
2022/05/19 06:59:47;;;;;;;0.05;0.05;;;21.70;99.90;;;;;;4888457;29;20100;-64
2022/05/19 07:02:13;;;;;;;0.00;0.00;;;22.00;99.90;;;;;;4889222;29;20587;-63
2022/05/19 07:04:39;;;;;;;0.00;0.00;;;22.20;99.90;;;;;;4888436;29;20096;-63
2022/05/19 07:07:06;;;;;;;0.00;0.00;;;22.30;99.90;;;;;;4887730;29;20232;-63
2022/05/19 07:09:34;;;;;;;0.95;0.57;;;22.50;99.90;;;;;;4886994;29;20137;-63
2022/05/19 07:12:00;;;;;;;0.00;0.00;;;22.50;99.90;;;;;;4887525;29;20048;-63
2022/05/19 07:14:26;;;;;;;0.10;0.00;;;22.80;99.90;;;;;;4870977;29;20573;-63
2022/05/19 07:16:52;;;;;;;0.00;0.00;;;23.20;99.90;;;;;;4888432;29;20045;-63
2022/05/19 07:22:07;;;;;;;0.00;0.00;;;23.60;99.90;;;;;;4887615;29;20056;-63
2022/05/19 07:24:33;;;;;;;0.00;0.00;;;23.80;99.90;;;;;;4888054;29;20057;-63
2022/05/19 07:27:00;;;;;;;0.10;0.10;;;23.70;99.90;;;;;;4870564;29;20060;-63
2022/05/19 07:29:27;;;;;;;0.00;0.00;;;23.60;99.90;;;;;;4887363;29;20045;-63
2022/05/19 07:31:55;;;;;;;0.00;0.00;;;23.40;99.90;;;;;;4871369;29;20124;-63
2022/05/19 07:34:22;;;;;;;0.00;0.00;;;23.30;99.90;;;;;;4887772;29;20084;-62
2022/05/19 07:36:48;;;;;;;0.00;0.00;;;23.10;99.90;;;;;;4887500;29;20112;-64
2022/05/19 07:39:15;;;;;;;0.00;0.00;;;22.80;99.90;;;;;;4888301;29;20048;-65
2022/05/19 07:41:41;;;;;;;0.00;0.00;;;22.60;99.90;;;;;;4871196;29;20048;-63
2022/05/19 07:44:08;;;;;;;0.00;0.00;;;22.40;99.90;;;;;;4887894;29;20037;-63
2022/05/19 07:46:35;;;;;;;0.00;0.00;;;22.40;99.90;;;;;;4897626;29;20067;-63
2022/05/19 07:49:01;;;;;;;0.00;0.00;;;22.30;99.90;;;;;;4870657;29;20049;-63
2022/05/19 07:51:31;;;;;;;0.00;0.00;;;22.20;99.90;;;;;;4887538;29;20053;-63
2022/05/19 07:53:57;;;;;;;0.00;0.00;;;22.10;99.90;;;;;;4886865;29;20056;-63
2022/05/19 07:56:23;;;;;;;0.00;0.00;;;22.20;99.90;;;;;;4869970;29;20053;-63
2022/05/19 07:58:50;;;;;;;0.00;0.00;;;22.10;99.90;;;;;;4887625;29;20088;-63
2022/05/19 08:01:16;;;;;;;0.00;0.00;;;22.10;99.90;;;;;;4886930;29;20044;-64
2022/05/19 08:03:42;;;;;;;0.05;0.00;;;22.20;99.90;;;;;;4887858;29;20429;-63
2022/05/19 08:06:10;;;;;;;0.00;0.00;;;21.80;99.90;;;;;;4887483;29;20119;-63
2022/05/19 08:08:37;;;;;;;0.10;0.10;;;21.80;99.90;;;;;;4870634;29;20068;-63
2022/05/19 08:11:03;;;;;;;0.00;0.00;;;21.70;99.90;;;;;;4886399;29;20407;-64
2022/05/19 08:16:14;;;;;;;0.00;0.00;;;21.50;99.90;;;;;;4887396;29;20052;-63
2022/05/19 08:18:40;;;;;;;0.00;0.00;;;21.50;99.90;;;;;;4887325;29;20041;-66
2022/05/19 08:21:09;;;;;;;0.00;0.00;;;21.40;99.90;;;;;;4887442;29;20132;-63
2022/05/19 08:23:40;;;;;;;0.00;0.00;;;21.20;99.90;;;;;;4886971;29;20135;-64
2022/05/19 08:26:08;;;;;;;0.00;0.00;;;20.90;99.90;;;;;;4886328;29;20291;-64
2022/05/19 08:28:38;;;;;;;0.00;0.00;;;21.00;99.90;;;;;;4886921;29;20171;-67
2022/05/19 08:31:09;;;;;;;0.00;0.00;;;20.90;99.90;;;;;;4886337;29;20111;-67
2022/05/19 08:33:36;;;;;;;0.00;0.00;;;20.80;99.90;;;;;;4886711;29;20096;-67
2022/05/19 08:36:03;;;;;;;0.00;0.00;;;20.40;99.90;;;;;;4886697;29;20748;-67
2022/05/19 08:38:31;;;;;;;0.00;0.00;;;20.20;99.90;;;;;;4886114;29;20095;-68
2022/05/19 08:41:05;;;;;;;0.00;0.00;;;20.10;99.90;;;;;;4886144;29;20088;-68
2022/05/19 08:43:41;;;;;;;;;;;19.90;99.90;;;;;;4886959;29;20156;-68
2022/05/19 08:46:07;;;;;;;0.00;0.00;;;19.90;99.90;;;;;;4893810;29;20105;-68
2022/05/19 08:48:35;;;;;;;0.00;0.00;;;20.00;99.90;;;;;;4888289;29;20398;-67
2022/05/19 08:51:04;;;;;;;0.00;0.00;;;20.10;99.90;;;;;;4886531;29;20063;-67
2022/05/19 08:53:33;;;;;;;0.00;0.00;;;20.10;99.90;;;;;;4885576;29;20059;-67
2022/05/19 08:56:11;;;;;;;0.00;0.00;;;20.20;99.90;;;;;;4884191;29;20455;-67
2022/05/19 08:59:02;;;;;;;0.00;0.00;;;20.20;99.90;;;;;;4886069;29;20056;-68
2022/05/19 09:01:40;;;;;;;0.00;0.00;;;20.20;99.90;;;;;;4886224;29;20048;-68
2022/05/19 09:04:32;;;;;;;0.00;0.00;;;20.30;99.90;;;;;;4884589;29;20054;-68
2022/05/19 09:09:54;;;;;;;0.00;0.00;;;20.20;99.90;;;;;;4886395;29;20404;-67
2022/05/19 09:12:23;;;;;;;0.00;0.00;;;20.10;99.90;;;;;;4884996;29;20781;-68
2022/05/19 09:14:50;;;;;;;0.10;0.10;;;20.10;99.90;;;;;;4885908;29;20044;-67
2022/05/19 09:17:18;;;;;;;0.00;0.00;;;20.10;99.90;;;;;;4886159;29;20625;-68
2022/05/19 09:19:53;;;;;;;0.00;0.00;;;20.10;99.90;;;;;;4886516;29;20091;-67
2022/05/19 09:22:26;;;;;;;0.00;0.00;;;20.10;99.90;;;;;;4884170;29;20068;-68
2022/05/19 09:24:53;;;;;;;0.00;0.00;;;20.20;99.90;;;;;;4885284;29;20049;-67
2022/05/19 09:27:19;;;;;;;0.00;0.00;;;20.20;99.90;;;;;;4885322;29;20469;-68
2022/05/19 09:29:51;;;;;;;0.00;0.00;;;20.20;99.90;;;;;;4886181;29;20045;-68
2022/05/19 09:32:22;;;;;;;0.00;0.00;;;20.30;99.90;;;;;;4884564;29;20044;-68
2022/05/19 09:34:50;;;;;;;0.00;0.00;;;20.40;99.90;;;;;;4886191;29;20741;-67
2022/05/19 09:37:35;;;;;;;0.00;0.00;;;20.40;99.90;;;;;;4884280;29;20496;-68
2022/05/19 09:40:10;;;;;;;0.00;0.00;;;20.50;99.90;;;;;;4885862;29;20274;-68
2022/05/19 09:42:49;;;;;;;0.00;0.00;;;20.50;99.90;;;;;;4885445;29;20052;-67
2022/05/19 09:45:15;;;;;;;0.00;0.00;;;20.60;99.90;;;;;;4871834;29;20055;-68
2022/05/19 09:47:45;;;;;;;0.00;0.00;;;20.60;99.90;;;;;;4893848;29;20076;-68
2022/05/19 09:50:17;;;;;;;0.00;0.00;;;20.70;99.90;;;;;;4869815;29;20040;-68
2022/05/19 09:52:44;;;;;;;0.00;0.00;;;20.60;99.90;;;;;;4886666;29;20304;-68
2022/05/19 09:55:13;;;;;;;0.20;0.20;;;20.70;99.90;;;;;;4868712;29;20050;-67
2022/05/19 09:57:46;;;;;;;0.00;0.00;;;20.90;99.90;;;;;;4868797;29;20444;-68
2022/05/19 10:00:32;;;;;;;0.00;0.00;;;21.20;99.90;;;;;;4886720;29;20164;-68
2022/05/19 10:02:59;;;;;;;0.00;0.00;;;21.40;99.90;;;;;;4885642;29;20734;-68
2022/05/19 10:05:59;;;;;;;0.00;0.00;;;21.60;99.90;;;;;;4869177;29;20049;-67
2022/05/19 10:08:35;;;;;;;0.00;0.00;;;21.70;99.90;;;;;;4862573;29;20061;-67
2022/05/19 10:11:12;;;;;;;0.00;0.00;;;22.00;99.90;;;;;;4866015;29;20560;-67
2022/05/19 10:13:51;;;;;;;0.00;0.00;;;22.10;99.90;;;;;;4866575;29;20135;-68
2022/05/19 10:16:45;;;;;;;0.00;0.00;;;22.30;99.90;;;;;;4866750;29;20132;-68
2022/05/19 10:19:39;;;;;;;0.00;0.00;;;22.50;99.90;;;;;;4881847;29;20056;-68
2022/05/19 10:22:22;;;;;;;0.00;0.00;;;22.60;99.90;;;;;;4865710;29;20068;-68
2022/05/19 10:25:10;;;;;;;0.00;0.00;;;22.60;99.90;;;;;;4866513;29;20497;-68
2022/05/19 10:31:06;;;;;;;0.00;0.00;;;22.80;99.90;;;;;;4867342;29;20381;-68
2022/05/19 10:34:10;;;;;;;0.00;0.00;;;22.80;99.90;;;;;;4866634;29;20057;-67
2022/05/19 10:36:48;;;;;;;0.00;0.00;;;22.80;99.90;;;;;;4867332;29;20071;-68
2022/05/19 10:39:44;;;;;;;0.00;0.00;;;22.90;99.90;;;;;;4871003;29;20049;-67
2022/05/19 10:42:34;;;;;;;0.00;0.00;;;23.00;99.90;;;;;;4869694;29;20049;-67
2022/05/19 10:45:25;;;;;;;0.00;0.00;;;23.10;99.90;;;;;;4870887;29;20049;-67
2022/05/19 10:48:24;;;;;;;0.00;0.00;;;22.90;99.90;;;;;;4881407;29;20087;-68
2022/05/19 10:50:55;;;;;;;0.00;0.00;;;22.70;99.90;;;;;;4872982;29;20147;-68
2022/05/19 10:53:36;;;;;;;0.00;0.00;;;22.60;99.90;;;;;;4888697;29;20476;-67
2022/05/19 10:56:13;;;;;;;0.00;0.00;;;22.50;99.90;;;;;;4888050;29;20142;-67
2022/05/19 10:59:11;;;;;;;0.00;0.00;;;22.40;99.90;;;;;;4888536;29;20184;-68
2022/05/19 11:01:58;;;;;;;0.00;0.00;;;22.40;99.90;;;;;;4887296;29;20161;-67
2022/05/19 11:04:57;;;;;;;0.00;0.00;;;22.40;99.90;;;;;;4887973;29;20079;-67
2022/05/19 11:07:49;;;;;;;0.00;0.00;;;22.70;99.90;;;;;;4892028;29;20067;-68
2022/05/19 11:10:38;;;;;;;0.13;0.10;;;22.80;99.90;;;;;;4907601;29;20063;-67
2022/05/19 11:13:22;;;;;;;0.00;0.00;;;23.30;99.90;;;;;;4906886;29;20048;-67
2022/05/19 11:15:57;;;;;;;0.00;0.00;;;24.10;99.90;;;;;;4906922;29;20048;-67
2022/05/19 11:18:32;;;;;;;0.00;0.00;;;24.10;99.90;;;;;;4906778;29;20055;-67
2022/05/19 11:21:35;;;;;;;0.00;0.00;;;24.50;99.90;;;;;;4907347;29;20135;-67
2022/05/19 11:24:06;;;;;;;0.00;0.00;;;24.80;99.90;;;;;;4906900;29;20041;-67
2022/05/19 11:26:49;;;;;;;0.00;0.00;;;24.80;99.90;;;;;;4905549;29;20051;-67
2022/05/19 11:29:41;;;;;;;0.40;0.20;;;24.60;99.90;;;;;;4907238;29;20071;-67
2022/05/19 11:32:32;;;;;;;0.08;0.03;;;24.90;99.90;;;;;;4901396;29;20056;-67
2022/05/19 11:35:13;;;;;;;0.00;0.00;;;25.10;99.90;;;;;;4905978;29;20106;-67
2022/05/19 11:37:53;;;;;;;0.10;0.10;;;25.50;99.90;;;;;;4889464;29;20048;-67
2022/05/19 11:40:42;;;;;;;0.00;0.00;;;25.70;99.90;;;;;;4905849;29;20115;-67
2022/05/19 11:43:16;;;;;;;0.10;0.10;;;25.40;99.90;;;;;;4906646;29;20352;-66
2022/05/19 11:45:53;;;;;;;0.03;0.00;;;25.80;99.90;;;;;;4900701;29;20044;-66
2022/05/19 11:58:04;;;;;;;0.10;0.10;;;25.20;99.90;;;;;;4887203;29;20048;-67
2022/05/19 12:00:41;;;;;;;0.30;0.13;;;25.10;99.90;;;;;;4887049;29;20055;-66
2022/05/19 12:03:14;;;;;;;0.85;0.43;;;24.90;99.90;;;;;;4886094;29;20049;-66
2022/05/19 12:05:51;;;;;;;0.20;0.20;;;25.40;99.90;;;;;;4888055;29;20048;-66
2022/05/19 12:08:23;;;;;;;0.17;0.17;;;25.20;99.90;;;;;;4886861;29;20078;-66
2022/05/19 12:11:11;;;;;;;0.35;0.20;;;25.40;99.90;;;;;;4886606;29;20056;-66
2022/05/19 12:13:39;;;;;;;0.32;0.30;;;25.90;99.90;;;;;;4887061;29;20091;-66
2022/05/19 12:16:12;;;;;;;0.30;0.13;;;25.80;99.90;;;;;;4885946;29;20045;-66
2022/05/19 12:18:42;;;;;;;0.10;0.10;;;25.80;99.90;;;;;;4886228;29;20623;-66
2022/05/19 12:21:09;;;;;;;0.13;0.13;;;25.50;99.90;;;;;;4887042;29;20123;-66
2022/05/19 12:23:40;;;;;;;0.28;0.20;;;25.50;99.90;;;;;;4870154;29;20127;-66
2022/05/19 12:26:11;;;;;;;0.17;0.08;;;25.30;99.90;;;;;;4885620;29;20325;-66
2022/05/19 12:29:10;;;;;;;0.10;0.10;;;25.30;99.90;;;;;;4886445;29;20076;-66
2022/05/19 12:31:56;;;;;;;0.10;0.10;;;25.40;99.90;;;;;;4885353;29;20351;-66
2022/05/19 12:34:50;;;;;;;0.35;0.17;;;25.50;99.90;;;;;;4886629;29;20064;-66
2022/05/19 12:37:43;;;;;;;0.00;0.00;;;25.70;99.90;;;;;;4885620;29;20052;-67
2022/05/19 12:40:47;;;;;;;0.35;0.10;;;25.60;99.90;;;;;;4886736;29;20100;-67
2022/05/19 12:43:19;;;;;;;0.20;0.15;;;25.50;99.90;;;;;;4886541;29;20044;-66
2022/05/19 12:45:57;;;;;;;0.63;0.25;;;25.30;99.90;;;;;;4875996;29;20612;-67
2022/05/19 12:48:33;;;;;;;0.00;0.00;;;25.20;99.90;;;;;;4872590;29;20044;-67
2022/05/19 12:51:15;;;;;;;0.00;0.00;;;25.30;99.90;;;;;;4886227;29;20059;-67
2022/05/19 12:53:50;;;;;;;0.20;0.10;;;25.30;99.90;;;;;;4885808;29;20053;-67
2022/05/19 12:56:35;;;;;;;0.00;0.00;;;25.20;99.90;;;;;;4868720;29;20048;-67
2022/05/19 12:59:05;;;;;;;0.10;0.10;;;25.20;99.90;;;;;;4885429;29;20044;-66
2022/05/19 13:01:44;;;;;;;0.00;0.00;;;25.30;99.90;;;;;;4869249;29;20432;-67
2022/05/19 13:04:10;;;;;;;0.00;0.00;;;25.20;99.90;;;;;;4886297;29;20115;-67
2022/05/19 13:06:42;;;;;;;0.00;0.00;;;25.20;99.90;;;;;;4885198;29;20052;-67
2022/05/19 13:09:09;;;;;;;0.00;0.00;;;25.20;99.90;;;;;;4889823;29;20131;-67
2022/05/19 13:11:45;;;;;;;0.00;0.00;;;25.20;99.90;;;;;;4891561;29;20044;-67
2022/05/19 13:14:20;;;;;;;0.00;0.00;;;25.20;99.90;;;;;;4875275;29;20048;-67
2022/05/19 13:16:51;;;;;;;0.10;0.10;;;25.10;99.90;;;;;;4874485;29;20339;-67
2022/05/19 13:19:22;;;;;;;0.00;0.00;;;25.00;99.90;;;;;;4874325;29;20381;-67
2022/05/19 13:21:58;;;;;;;0.00;0.00;;;25.00;99.90;;;;;;4891626;29;20048;-67
2022/05/19 13:24:26;;;;;;;0.00;0.00;;;24.80;99.90;;;;;;4891448;29;20036;-67
2022/05/19 13:32:33;;;;;;;0.00;0.00;;;24.40;99.90;;;;;;4882123;29;20060;-67
2022/05/19 13:35:16;;;;;;;0.00;0.00;;;24.30;99.90;;;;;;4891498;29;20057;-68
2022/05/19 13:37:44;;;;;;;0.00;0.00;;;24.10;99.90;;;;;;4892213;29;20044;-67
2022/05/19 13:40:13;;;;;;;0.00;0.00;;;23.80;99.90;;;;;;4891668;29;20086;-67